Tuesday, August 21, 2018, 9:55 AM EDT
Back to Local

KSFM, Sanford, Sanford Regional Airport

Location: Sanford, ME, United States Lat: 43.4
Local Time: 9:55 AM EDT (13:55 GMT) Lon: -70.717
Time Zone: US/Eastern Elev: 242 ft

Show me the last for .
Show Decoded

2018-08-21 08:56 METAR KSFM 211256Z AUTO 00000KT 10SM CLR 18/16 A3018 RMK AO2 SLP221 T01780156 =
2018-08-21 08:21 METAR KSFM 211221Z AUTO 00000KT 10SM SCT003 17/16 A3017 RMK AO2 =
2018-08-21 08:02 METAR KSFM 211202Z AUTO 00000KT 8SM OVC003 15/14 A3018 RMK AO2 =
2018-08-21 07:55 METAR KSFM 211155Z AUTO 00000KT 2 1/2SM BR OVC003 14/14 A3017 RMK AO2 VIS 1
                 1/4V5 RAB09E34 SLP220 P0000 60000 T01440139 10144 20083 51007 =
2018-08-21 07:54 METAR KSFM 211154Z AUTO 00000KT 2SM BR OVC003 14/14 A3017 RMK AO2 VIS 3/4V5
                 RAB09E34 P0000 =
2018-08-21 07:47 METAR KSFM 211147Z AUTO 00000KT 1SM BR OVC003 13/13 A3017 RMK AO2 RAB09E34 P0000
                 RVRNO =
2018-08-21 07:42 METAR KSFM 211142Z AUTO 00000KT 1/2SM FG OVC003 13/13 A3017 RMK AO2 RAB09E34
                 P0000 RVRNO =
2018-08-21 07:03 METAR KSFM 211103Z AUTO 00000KT 1SM BR OVC003 12/12 A3017 RMK AO2 RVRNO =
2018-08-21 06:56 METAR KSFM 211056Z AUTO 00000KT 10SM OVC003 12/11 A3017 RMK AO2 SLP220 T01170111
                 =
2018-08-21 06:31 METAR KSFM 211031Z AUTO 00000KT 5SM BR BKN003 09/09 A3017 RMK AO2 =
2018-08-21 06:16 METAR KSFM 211016Z AUTO 00000KT 7SM SCT001 08/08 A3017 RMK AO2 =
2018-08-21 06:01 METAR KSFM 211001Z AUTO 27003KT 2SM BR SCT001 08/08 A3016 RMK AO2 =
2018-08-21 05:56 METAR KSFM 210956Z AUTO 27003KT 10SM BKN001 08/08 A3016 RMK AO2 RAB21E56 SLP216
                 P0000 T00830083 =
2018-08-21 05:52 METAR KSFM 210952Z AUTO 00000KT 2SM -RA BR BKN001 09/09 A3016 RMK AO2 RAB21
                 P0000 =
2018-08-21 05:43 METAR KSFM 210943Z AUTO 00000KT 1SM -RA BR VV001 08/08 A3016 RMK AO2 RAB21 P0000
                 RVRNO =
2018-08-21 05:40 METAR KSFM 210940Z AUTO 00000KT 1 1/2SM -RA BR CLR 08/08 A3015 RMK AO2 RAB21
                 P0000 =
2018-08-21 05:32 METAR KSFM 210932Z AUTO 00000KT 5SM -RA BR CLR 09/08 A3015 RMK AO2 RAB21 P0000 =
2018-08-21 05:30 METAR KSFM 210930Z AUTO 00000KT 1 1/2SM -RA BR CLR 09/08 A3015 RMK AO2 VIS 1/2V5
                 RAB21 P0000 =
2018-08-21 05:21 METAR KSFM 210921Z AUTO 00000KT 3/4SM -RA BR CLR 09/08 A3015 RMK AO2 RAB21 P0000
                 RVRNO =
2018-08-21 05:19 METAR KSFM 210919Z AUTO 00000KT 1 1/2SM BR CLR 09/08 A3016 RMK AO2 =
2018-08-21 04:56 METAR KSFM 210856Z AUTO 00000KT 9SM CLR 09/08 A3015 RMK AO2 RAB24E38 SLP214
                 P0000 60000 T00890083 56012 =
2018-08-21 04:39 METAR KSFM 210839Z AUTO 00000KT 10SM CLR 09/08 A3016 RMK AO2 RAB24E38 P0000 =
2018-08-21 04:32 METAR KSFM 210832Z AUTO 00000KT 2SM -RA BR CLR 09/09 A3016 RMK AO2 RAB24 P0000 =
2018-08-21 04:30 METAR KSFM 210830Z AUTO 00000KT 1SM -RA BR CLR 09/09 A3016 RMK AO2 RAB24 P0000
                 RVRNO =
2018-08-21 04:24 METAR KSFM 210824Z AUTO 00000KT 1/2SM -RA FG CLR 09/09 A3016 RMK AO2 RAB24 P0000
                 RVRNO =
2018-08-21 04:15 METAR KSFM 210815Z AUTO 00000KT 1/4SM FG CLR 09/08 A3016 RMK AO2 RVRNO =
2018-08-21 04:09 METAR KSFM 210809Z AUTO 00000KT 3/4SM BR CLR 09/09 A3016 RMK AO2 RVRNO =
2018-08-21 04:06 METAR KSFM 210806Z AUTO 00000KT 1 3/4SM BR CLR 09/09 A3016 RMK AO2 =
2018-08-21 03:56 METAR KSFM 210756Z AUTO 00000KT 5SM BR CLR 09/09 A3016 RMK AO2 SLP217 T00940094
                 =
2018-08-21 02:56 METAR KSFM 210656Z AUTO 00000KT 10SM CLR 09/09 A3018 RMK AO2 SLP223 T00940094 =
2018-08-21 00:56 METAR KSFM 210456Z AUTO 00000KT 9SM CLR 11/11 A3019 RMK AO2 SLP226 T01110111
                 TSNO =
2018-08-20 23:56 METAR KSFM 210356Z AUTO 25003KT 8SM CLR 11/11 A3020 RMK AO2 SLP227 T01110111
                 402390111 =
2018-08-20 22:56 METAR KSFM 210256Z AUTO 00000KT 6SM BR CLR 12/12 A3020 RMK AO2 SLP229 T01220122
                 50005 =
2018-08-20 21:56 METAR KSFM 210156Z AUTO 00000KT 10SM CLR 13/13 A3021 RMK AO2 SLP233 T01330128 =
2018-08-20 20:56 METAR KSFM 210056Z AUTO 00000KT 5SM BR CLR 14/14 A3020 RMK AO2 SLP229 T01440139
                 =
2018-08-20 19:56 METAR KSFM 202356Z AUTO 00000KT 10SM CLR 16/15 A3019 RMK AO2 SLP225 T01560150
                 10239 20156 55000 =
2018-08-20 18:56 METAR KSFM 202256Z AUTO 00000KT 10SM CLR 19/14 A3018 RMK AO2 SLP223 T01940144 =
2018-08-20 17:56 METAR KSFM 202156Z AUTO VRB04KT 10SM CLR 21/16 A3018 RMK AO2 SLP221 T02060156 =
2018-08-20 16:56 METAR KSFM 202056Z AUTO 12006KT 10SM CLR 22/16 A3019 RMK AO2 SLP224 T02170161
                 55001 =
2018-08-20 15:56 METAR KSFM 201956Z AUTO 12007KT 10SM FEW030 23/16 A3018 RMK AO2 SLP223 T02280161
                 =
2018-08-20 14:56 METAR KSFM 201856Z AUTO 11007KT 10SM SCT033 23/15 A3018 RMK AO2 SLP221 T02330150
                 =
2018-08-20 13:56 METAR KSFM 201756Z AUTO VRB05KT 10SM FEW033 23/16 A3019 RMK AO2 SLP225 T02330156
                 10233 20178 55008 =
2018-08-20 12:56 METAR KSFM 201656Z AUTO 08007KT 040V120 10SM FEW032 23/15 A3019 RMK AO2 SLP225
                 T02280150 =
2018-08-20 11:56 METAR KSFM 201556Z AUTO 09008KT 10SM BKN034 23/16 A3021 RMK AO2 SLP231 T02330156
                 =
2018-08-20 10:56 METAR KSFM 201456Z AUTO 07007KT 10SM CLR 22/16 A3022 RMK AO2 SLP234 T02170156
                 50002 =
2018-08-20 09:56 METAR KSFM 201356Z AUTO 06006KT 10SM CLR 22/16 A3022 RMK AO2 SLP235 T02170156 =

Support USWX by starting your Amazon purchase here.